Anzali, Iran

4:22 AM IRDT on September 03, 2014 (GMT +0430)
Rasht | Change Station
CLOSE
Current Station
Airport
Location: Rasht,
Elevation: -30 ft
Nearby Weather Stations

Elev -30 ft 37.33 °N, 49.61 °E | Updated 1 hour ago

Mostly Cloudy
Mostly Cloudy
77 °F
Feels Like 77 °F
N
5
Wind Variable Wind from WSW

Today
High -- | Low -- °F
--% Chance of Precip.
Yesterday
High -- | Low -- °F
Precip. -- in
6:43 AM 7:38 PM
First Quarter, 56% visible
Pressure 29.86 in
Visibility 3.7 miles
Clouds Scattered Clouds 2500 ft
Mostly Cloudy 8000 ft
Dew Point 73 °F
Humidity 89%
Rainfall 0.00 in
Snow Depth Not available.
UV 0 out of 12
Pollen Not available.
Air Quality Not available.
Flu Activity Not available.
METAR OIGG 022200Z 25004KT 6000 SCT025 BKN080 25/23 Q1011

More Conditions Fewer Conditions

Pressure 29.86 in
Visibility 3.7 miles
Clouds Scattered Clouds 2500 ft
Mostly Cloudy 8000 ft
Dew Point 73 °F
Humidity 89%
Rainfall 0.00 in
Snow Depth Not available.
UV 0 out of 12
Pollen Not available.
Air Quality Not available.
Flu Activity Not available.
METAR OIGG 022200Z 25004KT 6000 SCT025 BKN080 25/23 Q1011

More Conditions Fewer Conditions

10-Day Weather Forecast

Almanac

Astronomy

Sep. 03, 2014 Rise Set
Actual Time 6:43 AM IRDT 7:38 PM IRDT
Civil Twilight 6:17 AM IRDT 8:05 PM IRDT
Nautical Twilight 5:45 AM IRDT 8:36 PM IRDT
Astronomical Twilight 5:12 AM IRDT 9:09 PM IRDT
Moon 2:54 PM IRDT (9/3) No Moon Set
Length of Visible Light 13h 48m
Length of Day
12h 54m
Tomorrow will be 2m 19s shorter.
First Quarter, 56% of the Moon is Illuminated
Sep 2
First Quarter
Sep 8
Full
Sep 15
Last Quarter
Sep 24
New
Oct 1
First Quarter

Yesterday's Extremes

Country Highs Country Lows

Community

WunderPhotos

Upload Photos

1,749,799 photos uploaded!

Nearby

Snow Depth

Not available.

Earthquake Activity

City Distance Mag. Time & Date
No recent earthquake activity has been reported nearby.
Minimum magnitude displayed is 2.5.

Coastal Water Temperatures

Place Temperature
No Stations Reporting

Nearby Weather Stations